Time;durP1;ratioP1;P1;durP2;ratioP2;P2;SDS_P1;SDS_P2;PMS_P1;PMS_P2;Temp;Humidity;BMP_temperature;BMP_pressure;BME280_temperature;BME280_humidity;BME280_pressure;Samples;Min_cycle;Max_cycle;Signal;HPM_P1;HPM_P2
2021/08/08 00:00:28;;;;;;;5.60;3.23;;;15.00;97.20;;;;;;5033451;28;20054;-69
2021/08/08 00:02:54;;;;;;;4.43;3.67;;;15.00;97.20;;;;;;5032814;28;20115;-69
2021/08/08 00:05:20;;;;;;;8.40;4.03;;;15.00;97.20;;;;;;5032856;28;20111;-69
2021/08/08 00:07:45;;;;;;;5.67;4.03;;;15.00;97.30;;;;;;5033211;28;20054;-70
2021/08/08 00:10:13;;;;;;;5.90;3.90;;;15.00;97.30;;;;;;5032179;28;20080;-69
2021/08/08 00:12:41;;;;;;;7.90;4.47;;;15.10;97.40;;;;;;5032977;28;20041;-70
2021/08/08 00:15:08;;;;;;;6.77;4.27;;;15.00;97.40;;;;;;5031294;28;20066;-70
2021/08/08 00:17:35;;;;;;;6.10;4.73;;;15.10;97.50;;;;;;5033063;28;20132;-69
2021/08/08 00:20:00;;;;;;;5.97;4.40;;;15.00;97.50;;;;;;5032594;28;20049;-70
2021/08/08 00:22:26;;;;;;;7.80;4.80;;;15.10;97.50;;;;;;5032126;28;20042;-70
2021/08/08 00:24:51;;;;;;;6.70;4.77;;;15.10;97.50;;;;;;5032656;28;20075;-69
2021/08/08 00:27:17;;;;;;;7.20;5.40;;;15.10;97.50;;;;;;5032602;28;20049;-69
2021/08/08 00:29:43;;;;;;;9.20;5.27;;;15.10;97.50;;;;;;5032085;28;20375;-70
2021/08/08 00:32:09;;;;;;;8.10;4.20;;;15.10;97.60;;;;;;5032556;28;20329;-69
2021/08/08 00:34:34;;;;;;;6.80;4.53;;;15.10;97.60;;;;;;5032894;28;20120;-69
2021/08/08 00:37:00;;;;;;;6.53;4.60;;;15.10;97.50;;;;;;5032008;28;20124;-69
2021/08/08 00:39:26;;;;;;;5.90;4.03;;;15.10;97.60;;;;;;5032506;28;20045;-69
2021/08/08 00:41:53;;;;;;;6.57;4.30;;;15.10;97.50;;;;;;5032527;28;20053;-68
2021/08/08 00:44:19;;;;;;;6.13;4.20;;;15.10;97.50;;;;;;5031741;28;20049;-69
2021/08/08 00:46:44;;;;;;;7.67;4.70;;;15.10;97.50;;;;;;5032586;28;20052;-69
2021/08/08 00:49:10;;;;;;;6.40;4.30;;;15.10;97.50;;;;;;5032300;28;20533;-68
2021/08/08 00:51:38;;;;;;;5.90;4.07;;;15.10;97.50;;;;;;5031702;28;20494;-69
2021/08/08 00:54:04;;;;;;;5.53;4.57;;;15.10;97.50;;;;;;5032190;28;20080;-69
2021/08/08 00:56:29;;;;;;;5.40;4.03;;;15.10;97.50;;;;;;5032216;28;20132;-69
2021/08/08 00:58:56;;;;;;;5.37;3.70;;;15.10;97.50;;;;;;5031760;28;20517;-68
2021/08/08 01:01:25;;;;;;;7.67;4.17;;;15.10;97.50;;;;;;5032244;28;20132;-69
2021/08/08 01:03:54;;;;;;;5.80;4.00;;;15.10;97.50;;;;;;5032429;28;20049;-68
2021/08/08 01:06:26;;;;;;;6.47;3.87;;;15.10;97.50;;;;;;5031261;28;20072;-69
2021/08/08 01:08:55;;;;;;;6.97;3.53;;;15.10;97.50;;;;;;5032157;28;20057;-69
2021/08/08 01:11:23;;;;;;;5.27;3.93;;;15.10;97.50;;;;;;5031328;28;20049;-69
2021/08/08 01:13:50;;;;;;;6.47;3.70;;;15.10;97.50;;;;;;5032320;28;20046;-69
2021/08/08 01:16:19;;;;;;;8.63;3.73;;;15.10;97.50;;;;;;5031768;28;20490;-69
2021/08/08 01:18:46;;;;;;;7.23;4.70;;;15.10;97.40;;;;;;5031485;28;20052;-69
2021/08/08 01:21:12;;;;;;;8.87;3.47;;;15.10;97.40;;;;;;5031652;28;20111;-69
2021/08/08 01:23:39;;;;;;;7.63;3.70;;;15.10;97.40;;;;;;5032069;28;20081;-70
2021/08/08 01:26:06;;;;;;;6.20;3.47;;;15.10;97.40;;;;;;5031665;28;20148;-69
2021/08/08 01:28:32;;;;;;;5.40;3.30;;;15.10;97.40;;;;;;5036587;28;20140;-68
2021/08/08 01:30:57;;;;;;;6.27;4.03;;;15.20;97.40;;;;;;5036164;28;20132;-68
2021/08/08 01:33:23;;;;;;;6.00;3.40;;;15.10;97.30;;;;;;5035029;28;20460;-68
2021/08/08 01:35:49;;;;;;;5.57;3.23;;;15.10;97.40;;;;;;5036017;28;20049;-69
2021/08/08 01:38:15;;;;;;;5.23;3.07;;;15.20;97.40;;;;;;5035526;28;20064;-69
2021/08/08 01:40:58;;;;;;;5.50;3.23;;;15.10;97.40;;;;;;5035211;28;20057;-69
2021/08/08 01:43:28;;;;;;;4.63;3.37;;;15.10;97.40;;;;;;5035566;28;20517;-68
2021/08/08 01:46:03;;;;;;;9.33;3.83;;;15.20;97.40;;;;;;5035894;28;20049;-70
2021/08/08 01:48:34;;;;;;;5.80;3.40;;;15.10;97.40;;;;;;5035040;28;20477;-70
2021/08/08 01:51:00;;;;;;;7.38;3.30;;;15.20;97.40;;;;;;5035708;28;20061;-68
2021/08/08 01:53:27;;;;;;;5.90;3.67;;;15.10;97.40;;;;;;5034889;28;20452;-67
2021/08/08 01:55:53;;;;;;;4.20;3.13;;;15.20;97.40;;;;;;5035528;28;20526;-67
2021/08/08 01:58:19;;;;;;;6.17;4.00;;;15.20;97.50;;;;;;5035298;28;20077;-67
2021/08/08 02:00:48;;;;;;;6.97;3.90;;;15.10;97.50;;;;;;5035023;28;20113;-68
2021/08/08 02:03:14;;;;;;;5.70;3.77;;;15.20;97.50;;;;;;5035028;28;20470;-69
2021/08/08 02:05:40;;;;;;;6.07;3.53;;;15.20;97.60;;;;;;5035674;28;20045;-68
2021/08/08 02:08:07;;;;;;;5.77;4.17;;;15.20;97.60;;;;;;5034602;28;20049;-69
2021/08/08 02:10:32;;;;;;;8.27;4.20;;;15.20;97.60;;;;;;5035538;28;20057;-69
2021/08/08 02:12:58;;;;;;;6.27;4.70;;;15.20;97.70;;;;;;5035446;28;20141;-69
2021/08/08 02:15:24;;;;;;;5.03;3.83;;;15.20;97.70;;;;;;5034103;28;20085;-69
2021/08/08 02:17:49;;;;;;;12.00;4.60;;;15.20;97.70;;;;;;5035273;28;20045;-69
2021/08/08 02:20:17;;;;;;;5.87;4.67;;;15.20;97.70;;;;;;5035039;28;20073;-70
2021/08/08 02:22:46;;;;;;;7.07;5.43;;;15.20;97.80;;;;;;5034557;28;20084;-70
2021/08/08 02:25:13;;;;;;;8.27;4.97;;;15.20;97.90;;;;;;5034683;28;20053;-70
2021/08/08 02:27:40;;;;;;;6.97;5.30;;;15.20;97.90;;;;;;5034434;28;20045;-69
2021/08/08 02:30:08;;;;;;;11.33;5.50;;;15.20;98.00;;;;;;5033916;28;20140;-70
2021/08/08 02:32:34;;;;;;;8.77;6.10;;;15.20;98.00;;;;;;5035055;28;20087;-69
2021/08/08 02:35:00;;;;;;;8.13;6.10;;;15.20;98.10;;;;;;5035148;28;20057;-70
2021/08/08 02:37:26;;;;;;;7.10;5.80;;;15.30;98.20;;;;;;5033775;28;20183;-70
2021/08/08 02:39:52;;;;;;;10.17;6.63;;;15.30;98.20;;;;;;5034857;28;20049;-69
2021/08/08 02:42:17;;;;;;;9.07;6.43;;;15.30;98.30;;;;;;5034648;28;20057;-70
2021/08/08 02:44:43;;;;;;;7.77;6.33;;;15.30;98.30;;;;;;5034118;28;20097;-70
2021/08/08 02:47:09;;;;;;;8.20;6.57;;;15.30;98.40;;;;;;5034496;28;20183;-68
2021/08/08 02:49:34;;;;;;;9.50;7.10;;;15.20;98.40;;;;;;5034843;28;20049;-67
2021/08/08 02:52:00;;;;;;;8.47;6.80;;;15.30;98.50;;;;;;5033807;28;20058;-68
2021/08/08 02:54:26;;;;;;;10.87;6.90;;;15.30;98.60;;;;;;5034532;28;20056;-68
2021/08/08 02:56:51;;;;;;;9.93;7.10;;;15.30;98.60;;;;;;5033774;28;20486;-68
2021/08/08 02:59:17;;;;;;;9.80;7.30;;;15.30;98.60;;;;;;5034119;28;20073;-68
2021/08/08 03:01:43;;;;;;;11.77;7.30;;;15.30;98.70;;;;;;5034484;28;20057;-68
2021/08/08 03:04:09;;;;;;;7.40;6.60;;;15.30;98.70;;;;;;5033625;28;20060;-68
2021/08/08 03:06:34;;;;;;;11.20;7.70;;;15.30;98.70;;;;;;5034580;28;20053;-68
2021/08/08 03:09:02;;;;;;;9.80;7.03;;;15.30;98.80;;;;;;5034032;28;20059;-68
2021/08/08 03:11:28;;;;;;;8.13;7.10;;;15.30;98.80;;;;;;5033677;28;20045;-68
2021/08/08 03:13:54;;;;;;;9.93;7.50;;;15.30;98.90;;;;;;5034526;28;20046;-70
2021/08/08 03:16:19;;;;;;;7.20;6.23;;;15.30;98.90;;;;;;5034367;28;20087;-70
2021/08/08 03:18:46;;;;;;;9.53;7.40;;;15.40;98.90;;;;;;5033258;28;20079;-70
2021/08/08 03:21:11;;;;;;;11.07;8.13;;;15.40;99.00;;;;;;5033994;28;20057;-68
2021/08/08 03:23:37;;;;;;;11.43;8.13;;;15.40;99.00;;;;;;5034320;28;20048;-71
2021/08/08 03:26:03;;;;;;;8.67;7.77;;;15.40;99.00;;;;;;5033070;28;20049;-68
2021/08/08 03:28:29;;;;;;;9.73;8.00;;;15.40;99.00;;;;;;5033903;28;20042;-71
2021/08/08 03:30:55;;;;;;;10.20;7.77;;;15.40;99.00;;;;;;5034245;28;20107;-71
2021/08/08 03:33:20;;;;;;;9.93;8.70;;;15.40;99.00;;;;;;5033266;28;20132;-68
2021/08/08 03:35:46;;;;;;;10.00;8.23;;;15.40;99.00;;;;;;5033959;28;20054;-68
2021/08/08 03:38:12;;;;;;;10.17;8.60;;;15.40;99.00;;;;;;5033610;28;20535;-68
2021/08/08 03:40:37;;;;;;;10.43;8.27;;;15.40;99.00;;;;;;5032907;28;20045;-68
2021/08/08 03:43:03;;;;;;;10.53;8.77;;;15.40;99.00;;;;;;5033312;28;20049;-69
2021/08/08 03:45:30;;;;;;;11.73;8.90;;;15.40;99.00;;;;;;5033765;28;20175;-69
2021/08/08 03:47:55;;;;;;;10.17;9.17;;;15.40;99.00;;;;;;5033180;28;20061;-69
2021/08/08 03:50:21;;;;;;;10.37;8.53;;;15.40;99.00;;;;;;5032462;28;20056;-69
2021/08/08 03:52:47;;;;;;;12.60;9.60;;;15.40;99.00;;;;;;5033733;28;20041;-69
2021/08/08 03:55:12;;;;;;;10.90;9.70;;;15.40;99.00;;;;;;5032670;28;20140;-70
2021/08/08 03:57:38;;;;;;;11.33;10.10;;;15.30;99.00;;;;;;5033331;28;20437;-69
2021/08/08 04:00:04;;;;;;;12.93;10.37;;;15.40;99.00;;;;;;5032670;28;20459;-69
2021/08/08 04:02:30;;;;;;;13.30;10.43;;;15.40;99.00;;;;;;5033298;28;20412;-69
2021/08/08 04:04:56;;;;;;;11.37;9.67;;;15.30;99.00;;;;;;5033297;28;20053;-69
2021/08/08 04:07:21;;;;;;;11.83;10.60;;;15.40;99.00;;;;;;5032463;28;20160;-69
2021/08/08 04:09:47;;;;;;;16.43;10.80;;;15.30;99.00;;;;;;5033130;28;20049;-69
2021/08/08 04:12:14;;;;;;;13.53;11.13;;;15.30;98.90;;;;;;5032932;28;20490;-70
2021/08/08 04:14:42;;;;;;;13.43;11.17;;;15.30;99.00;;;;;;5032511;28;20072;-70
2021/08/08 04:17:08;;;;;;;15.33;11.60;;;15.30;99.00;;;;;;5032593;28;20395;-69
2021/08/08 04:19:34;;;;;;;13.73;12.23;;;15.30;99.00;;;;;;5032966;28;20107;-69
2021/08/08 04:22:01;;;;;;;12.43;11.23;;;15.30;99.10;;;;;;5038699;28;20045;-70
2021/08/08 04:24:27;;;;;;;14.30;12.80;;;15.30;99.10;;;;;;5041716;28;20049;-69
2021/08/08 04:26:53;;;;;;;14.17;12.67;;;15.30;99.10;;;;;;5043510;28;20056;-69
2021/08/08 04:29:18;;;;;;;15.30;13.20;;;15.30;99.10;;;;;;5041036;28;20046;-69
2021/08/08 04:31:44;;;;;;;16.37;12.70;;;15.30;99.20;;;;;;5042200;28;20041;-69
2021/08/08 04:34:09;;;;;;;16.50;14.20;;;15.30;99.20;;;;;;5043062;28;20399;-69
2021/08/08 04:36:35;;;;;;;17.63;14.67;;;15.40;99.30;;;;;;5040689;28;20060;-69
2021/08/08 04:39:02;;;;;;;16.53;14.87;;;15.40;99.30;;;;;;5043528;28;20060;-70
2021/08/08 04:41:27;;;;;;;16.53;14.90;;;15.40;99.30;;;;;;5052421;28;20561;-70
2021/08/08 04:43:53;;;;;;;15.27;13.77;;;15.40;99.30;;;;;;5043619;28;20182;-70
2021/08/08 04:46:19;;;;;;;19.17;15.27;;;15.50;99.30;;;;;;5042752;28;20060;-69
2021/08/08 04:48:44;;;;;;;17.10;15.33;;;15.50;99.30;;;;;;5041246;28;20045;-69
2021/08/08 04:51:10;;;;;;;17.53;15.73;;;15.50;99.30;;;;;;5041100;28;20049;-70
2021/08/08 04:53:35;;;;;;;20.30;15.00;;;15.60;99.30;;;;;;5048451;28;20045;-70
2021/08/08 04:56:01;;;;;;;18.10;16.10;;;15.70;99.40;;;;;;5051739;28;20056;-70
2021/08/08 04:58:27;;;;;;;20.90;15.53;;;15.70;99.40;;;;;;5051775;28;20045;-69
2021/08/08 05:00:52;;;;;;;18.87;16.57;;;15.70;99.30;;;;;;5043234;28;20045;-69
2021/08/08 05:03:18;;;;;;;21.00;16.17;;;15.70;99.30;;;;;;5041523;28;20395;-69
2021/08/08 05:05:43;;;;;;;18.60;16.60;;;15.80;99.30;;;;;;5041890;28;20190;-69
2021/08/08 05:08:09;;;;;;;20.30;16.33;;;15.90;99.30;;;;;;5040808;28;20041;-70
2021/08/08 05:10:35;;;;;;;22.13;16.87;;;15.90;99.30;;;;;;5031487;28;20457;-70
2021/08/08 05:13:01;;;;;;;18.23;15.93;;;15.90;99.30;;;;;;5031997;28;20108;-69
2021/08/08 05:15:27;;;;;;;20.63;15.20;;;16.00;99.30;;;;;;5032053;28;20418;-68
2021/08/08 05:17:52;;;;;;;18.10;16.20;;;15.90;99.30;;;;;;5031448;28;20064;-69
2021/08/08 05:20:18;;;;;;;16.53;13.70;;;16.00;99.20;;;;;;5031366;28;20384;-70
2021/08/08 05:22:44;;;;;;;14.53;13.03;;;16.00;99.20;;;;;;5036781;28;20069;-69
2021/08/08 05:25:10;;;;;;;14.57;12.73;;;16.00;99.20;;;;;;5039093;28;20509;-70
2021/08/08 05:27:37;;;;;;;15.23;12.37;;;16.00;99.20;;;;;;5040292;28;20041;-68
2021/08/08 05:30:05;;;;;;;12.00;10.77;;;16.00;99.20;;;;;;5041155;28;20045;-70
2021/08/08 05:32:30;;;;;;;11.00;9.37;;;15.90;99.20;;;;;;5041858;28;20139;-69
2021/08/08 05:34:56;;;;;;;11.70;8.80;;;15.90;99.10;;;;;;5039963;28;20522;-69
2021/08/08 05:37:22;;;;;;;10.50;8.47;;;15.90;99.50;;;;;;5051353;28;20485;-69
2021/08/08 05:39:48;;;;;;;9.33;7.87;;;15.90;99.10;;;;;;5049312;28;20144;-70
2021/08/08 05:42:17;;;;;;;10.10;7.73;;;15.90;99.10;;;;;;5051365;28;20548;-70
2021/08/08 05:44:42;;;;;;;9.07;7.03;;;15.90;99.10;;;;;;5051437;28;20417;-69
2021/08/08 05:47:08;;;;;;;9.60;7.43;;;15.90;99.10;;;;;;5050565;28;20041;-70
2021/08/08 05:49:35;;;;;;;8.80;6.23;;;15.90;99.10;;;;;;5051246;28;20071;-69
2021/08/08 05:52:01;;;;;;;7.80;5.53;;;15.90;99.20;;;;;;5051305;28;20098;-70
2021/08/08 05:54:28;;;;;;;7.60;5.50;;;15.90;99.10;;;;;;5050426;28;20106;-70
2021/08/08 05:56:54;;;;;;;6.87;4.97;;;15.90;99.10;;;;;;5051631;28;20056;-70
2021/08/08 05:59:20;;;;;;;8.13;5.30;;;15.90;99.10;;;;;;5051262;28;20053;-69
2021/08/08 06:01:45;;;;;;;7.47;4.77;;;15.90;99.10;;;;;;5050727;28;20077;-69
2021/08/08 06:04:11;;;;;;;9.37;5.40;;;16.00;99.10;;;;;;5051146;28;20049;-70
2021/08/08 06:06:37;;;;;;;8.57;5.17;;;15.90;99.20;;;;;;5050470;28;20057;-69
2021/08/08 06:09:03;;;;;;;7.10;4.70;;;16.00;99.20;;;;;;5051406;28;20048;-68
2021/08/08 06:11:29;;;;;;;6.23;5.20;;;16.00;99.20;;;;;;5051689;28;20060;-69
2021/08/08 06:13:55;;;;;;;6.37;5.00;;;16.10;99.20;;;;;;5053804;28;20501;-68
2021/08/08 06:16:21;;;;;;;7.77;4.97;;;16.10;99.20;;;;;;5054549;28;20111;-68
2021/08/08 06:18:46;;;;;;;7.97;5.43;;;16.10;99.20;;;;;;5055014;28;20448;-68
2021/08/08 06:21:12;;;;;;;7.13;5.60;;;16.10;99.20;;;;;;5053567;28;20147;-69
2021/08/08 06:23:38;;;;;;;7.97;5.10;;;16.10;99.20;;;;;;5054668;28;20049;-70
2021/08/08 06:26:03;;;;;;;9.47;5.53;;;16.10;99.20;;;;;;5054268;28;20076;-67
2021/08/08 06:28:29;;;;;;;7.77;5.33;;;16.10;99.20;;;;;;5054137;28;20055;-68
2021/08/08 06:30:55;;;;;;;9.93;5.70;;;16.20;99.20;;;;;;5054452;28;20048;-67
2021/08/08 06:33:21;;;;;;;10.33;5.70;;;16.10;99.30;;;;;;5054538;28;20049;-68
2021/08/08 06:35:48;;;;;;;7.10;5.37;;;16.10;99.30;;;;;;5053640;28;20069;-67
2021/08/08 06:38:14;;;;;;;5.87;4.90;;;16.10;99.30;;;;;;5054275;28;20508;-68
2021/08/08 06:40:40;;;;;;;7.63;4.43;;;16.10;99.20;;;;;;5054307;28;20049;-68
2021/08/08 06:43:06;;;;;;;5.17;3.67;;;16.10;99.20;;;;;;5053679;28;20048;-68
2021/08/08 06:45:32;;;;;;;5.23;4.37;;;16.10;99.20;;;;;;5054400;28;20057;-68
2021/08/08 06:48:00;;;;;;;6.07;3.90;;;16.10;99.20;;;;;;5054471;28;20051;-65
2021/08/08 06:50:27;;;;;;;6.03;4.10;;;16.10;99.20;;;;;;5045989;28;20052;-65
2021/08/08 06:52:52;;;;;;;8.47;4.73;;;16.00;99.10;;;;;;5050535;28;20049;-65
2021/08/08 06:55:18;;;;;;;7.40;4.30;;;15.90;99.20;;;;;;5050806;28;20486;-65
2021/08/08 06:57:44;;;;;;;8.13;4.97;;;15.90;99.20;;;;;;5050426;28;20049;-65
2021/08/08 07:00:10;;;;;;;5.53;4.10;;;15.80;99.30;;;;;;5050159;28;20448;-67
2021/08/08 07:02:36;;;;;;;9.00;5.10;;;15.80;99.40;;;;;;5050619;28;20103;-66
2021/08/08 07:05:04;;;;;;;8.87;5.27;;;15.80;99.40;;;;;;5049986;28;20055;-66
2021/08/08 07:07:30;;;;;;;7.27;4.83;;;15.80;99.40;;;;;;5050612;28;20056;-66
2021/08/08 07:09:55;;;;;;;8.13;5.10;;;15.90;99.40;;;;;;5049824;28;20409;-66
2021/08/08 07:12:22;;;;;;;7.77;5.43;;;15.90;99.40;;;;;;5050182;28;20053;-66
2021/08/08 07:14:48;;;;;;;13.53;5.27;;;15.90;99.40;;;;;;5050466;28;20111;-67
2021/08/08 07:17:13;;;;;;;14.43;6.07;;;15.90;99.30;;;;;;5049044;28;20098;-66
2021/08/08 07:19:39;;;;;;;7.90;4.93;;;16.00;99.20;;;;;;5050290;28;20140;-67
2021/08/08 07:22:05;;;;;;;8.70;5.47;;;16.00;99.10;;;;;;5050206;28;20060;-66
2021/08/08 07:24:31;;;;;;;9.37;5.30;;;16.00;99.10;;;;;;5050058;28;20405;-66
2021/08/08 07:26:57;;;;;;;10.53;5.33;;;16.00;99.00;;;;;;5050284;28;20045;-66
2021/08/08 07:29:22;;;;;;;7.70;5.07;;;16.00;99.00;;;;;;5050055;28;20041;-66
2021/08/08 07:31:48;;;;;;;8.47;5.17;;;16.00;99.00;;;;;;5050143;28;20053;-67
2021/08/08 07:34:14;;;;;;;9.17;5.40;;;16.10;98.90;;;;;;5049787;28;20091;-66
2021/08/08 07:36:40;;;;;;;8.27;5.67;;;16.10;98.90;;;;;;5049917;28;20049;-69
2021/08/08 07:39:05;;;;;;;7.10;5.87;;;16.20;98.90;;;;;;5048851;28;20099;-69
2021/08/08 07:41:31;;;;;;;12.80;6.70;;;16.30;98.90;;;;;;5050293;28;20049;-67
2021/08/08 07:43:57;;;;;;;12.43;6.73;;;16.30;98.80;;;;;;5050087;28;20075;-66
2021/08/08 07:46:22;;;;;;;10.27;7.50;;;16.40;98.80;;;;;;5049213;28;20049;-68
2021/08/08 07:48:48;;;;;;;14.10;7.33;;;16.50;98.80;;;;;;5050004;28;20037;-67
2021/08/08 07:51:14;;;;;;;15.17;7.83;;;16.60;98.70;;;;;;5049562;28;20069;-67
2021/08/08 07:53:42;;;;;;;14.97;8.40;;;16.60;98.60;;;;;;5048970;28;20063;-67
2021/08/08 07:56:08;;;;;;;17.70;8.93;;;16.70;98.50;;;;;;5049280;28;20037;-69
2021/08/08 07:58:34;;;;;;;15.50;9.00;;;16.80;98.50;;;;;;5049822;28;20056;-68
2021/08/08 08:01:00;;;;;;;15.73;8.73;;;16.80;98.40;;;;;;5048303;28;20053;-68
2021/08/08 08:03:26;;;;;;;20.57;10.17;;;16.90;98.40;;;;;;5049259;28;20409;-69
2021/08/08 08:05:51;;;;;;;18.47;9.97;;;16.90;98.30;;;;;;5049131;28;20480;-68
2021/08/08 08:08:17;;;;;;;14.80;9.20;;;16.90;98.40;;;;;;5048904;28;20456;-68
2021/08/08 08:10:42;;;;;;;15.23;9.80;;;17.00;98.40;;;;;;5049198;28;20088;-68
2021/08/08 08:13:10;;;;;;;19.67;10.60;;;17.00;98.40;;;;;;5045560;28;20095;-67
2021/08/08 08:15:35;;;;;;;13.10;8.97;;;17.10;98.50;;;;;;5040052;28;20108;-68
2021/08/08 08:18:01;;;;;;;17.87;9.50;;;17.10;98.30;;;;;;5037341;28;20092;-67
2021/08/08 08:20:27;;;;;;;19.90;9.40;;;17.20;98.20;;;;;;5037750;28;20052;-67
2021/08/08 08:22:54;;;;;;;18.10;9.93;;;17.20;97.90;;;;;;5038883;28;20701;-69
2021/08/08 08:25:19;;;;;;;19.77;10.13;;;17.20;97.90;;;;;;5037296;28;20049;-67
2021/08/08 08:27:46;;;;;;;16.20;8.77;;;17.20;97.90;;;;;;5035974;28;20045;-68
2021/08/08 08:30:12;;;;;;;18.77;9.03;;;17.20;97.80;;;;;;5039431;28;20493;-66
2021/08/08 08:32:38;;;;;;;19.90;8.70;;;17.20;97.50;;;;;;5042243;28;20072;-69
2021/08/08 08:35:05;;;;;;;20.67;8.93;;;17.20;97.40;;;;;;5036956;28;20501;-66
2021/08/08 08:37:33;;;;;;;15.23;8.37;;;17.20;97.30;;;;;;5045910;28;20493;-66
2021/08/08 08:40:00;;;;;;;12.33;6.90;;;17.30;97.10;;;;;;5048848;28;20133;-66
2021/08/08 08:42:28;;;;;;;20.03;7.47;;;17.40;97.30;;;;;;5048400;28;20052;-67
2021/08/08 08:44:54;;;;;;;19.77;7.60;;;17.50;96.90;;;;;;5048376;28;20485;-68
2021/08/08 08:47:21;;;;;;;14.70;6.80;;;17.60;96.60;;;;;;5047987;28;20421;-68
2021/08/08 08:49:50;;;;;;;17.17;7.40;;;17.70;96.70;;;;;;5047517;28;20152;-68
2021/08/08 08:52:21;;;;;;;16.50;6.20;;;17.80;97.30;;;;;;5048542;28;20421;-67
2021/08/08 08:54:48;;;;;;;11.85;5.15;;;18.10;97.00;;;;;;5048528;28;20045;-67
2021/08/08 08:57:15;;;;;;;11.67;5.70;;;18.20;96.00;;;;;;5046190;28;20044;-66
2021/08/08 08:59:46;;;;;;;10.63;4.80;;;18.30;95.90;;;;;;5046533;28;20056;-68
2021/08/08 09:02:13;;;;;;;14.40;5.33;;;18.40;94.90;;;;;;5048356;28;20681;-68
2021/08/08 09:04:38;;;;;;;11.13;5.10;;;18.40;94.40;;;;;;5041350;28;20033;-67
2021/08/08 09:07:04;;;;;;;12.30;4.93;;;18.30;94.00;;;;;;5036883;28;20631;-67
2021/08/08 09:09:31;;;;;;;12.60;5.03;;;18.10;93.80;;;;;;5041919;28;20049;-68
2021/08/08 09:12:00;;;;;;;10.33;5.27;;;17.90;94.10;;;;;;5048814;28;20053;-67
2021/08/08 09:14:26;;;;;;;12.10;4.60;;;17.80;94.00;;;;;;5051110;28;20052;-68
2021/08/08 09:16:54;;;;;;;12.07;5.30;;;17.70;94.10;;;;;;5049635;28;20057;-67
2021/08/08 09:19:28;;;;;;;9.77;5.43;;;17.50;94.40;;;;;;5051069;28;20049;-69
2021/08/08 09:21:54;;;;;;;12.37;5.17;;;17.40;94.20;;;;;;5051201;28;20091;-69
2021/08/08 09:24:35;;;;;;;15.47;5.10;;;17.40;94.60;;;;;;5050271;28;20053;-67
2021/08/08 09:27:09;;;;;;;9.98;4.85;;;17.30;94.50;;;;;;5051346;28;20132;-67
2021/08/08 09:29:37;;;;;;;12.93;5.40;;;17.30;94.50;;;;;;5051756;28;20125;-67
2021/08/08 09:32:03;;;;;;;13.30;5.57;;;17.30;94.50;;;;;;5050990;28;20132;-68
2021/08/08 09:34:34;;;;;;;13.53;5.97;;;17.30;94.60;;;;;;5052092;28;20127;-67
2021/08/08 09:37:03;;;;;;;15.73;6.13;;;17.30;94.70;;;;;;5051479;28;20044;-67
2021/08/08 09:39:40;;;;;;;16.50;6.60;;;17.20;94.60;;;;;;5050745;28;20482;-69
2021/08/08 09:42:18;;;;;;;16.73;5.80;;;17.20;94.80;;;;;;5051612;28;20084;-68
2021/08/08 09:44:54;;;;;;;16.27;6.80;;;17.20;94.60;;;;;;5050478;28;20045;-67
2021/08/08 09:47:21;;;;;;;20.40;5.90;;;17.30;94.80;;;;;;5052110;28;20413;-67
2021/08/08 09:50:04;;;;;;;15.63;5.60;;;17.50;95.00;;;;;;5055280;28;20480;-66
2021/08/08 09:52:31;;;;;;;11.70;5.10;;;17.70;94.50;;;;;;5055428;28;20127;-67
2021/08/08 09:54:59;;;;;;;16.57;5.73;;;17.90;94.20;;;;;;5055828;28;20045;-66
2021/08/08 09:57:25;;;;;;;14.93;5.30;;;18.10;93.80;;;;;;5055717;28;20107;-66
2021/08/08 09:59:52;;;;;;;12.53;5.03;;;18.20;93.10;;;;;;5054452;28;20049;-65
2021/08/08 10:02:22;;;;;;;14.80;5.63;;;18.10;92.60;;;;;;5054741;28;20056;-67
2021/08/08 10:04:51;;;;;;;16.90;5.93;;;18.10;92.70;;;;;;5054935;28;20565;-66
2021/08/08 10:07:20;;;;;;;19.63;6.07;;;18.10;92.60;;;;;;5054103;28;20566;-66
2021/08/08 10:09:48;;;;;;;14.60;6.03;;;18.20;92.80;;;;;;5055240;28;20387;-66
2021/08/08 10:12:43;;;;;;;18.53;5.73;;;18.30;93.10;;;;;;5055069;28;20055;-66
2021/08/08 10:15:11;;;;;;;18.23;5.23;;;18.40;91.80;;;;;;5046322;28;20061;-67
2021/08/08 10:17:42;;;;;;;18.27;5.90;;;18.50;91.50;;;;;;5054779;28;20079;-67
2021/08/08 10:20:09;;;;;;;20.05;6.43;;;18.50;91.50;;;;;;5052871;28;20045;-68
2021/08/08 10:22:37;;;;;;;16.47;6.03;;;18.70;91.30;;;;;;5053492;28;20072;-67
2021/08/08 10:25:04;;;;;;;14.13;4.67;;;18.90;91.00;;;;;;5054900;28;20474;-68
2021/08/08 10:27:30;;;;;;;11.17;4.80;;;19.00;90.60;;;;;;5054524;28;20131;-68
2021/08/08 10:29:58;;;;;;;15.23;5.33;;;19.00;89.30;;;;;;5054974;28;20434;-67
2021/08/08 10:32:27;;;;;;;12.17;4.37;;;19.00;88.10;;;;;;5054310;28;20045;-68
2021/08/08 10:34:54;;;;;;;13.53;5.60;;;19.00;87.10;;;;;;5053673;28;20136;-69
2021/08/08 10:37:25;;;;;;;15.17;6.93;;;19.10;87.60;;;;;;5054337;28;20142;-65
2021/08/08 10:39:52;;;;;;;13.50;4.47;;;19.20;87.70;;;;;;5054078;28;20416;-67
2021/08/08 10:42:19;;;;;;;15.20;4.83;;;19.40;86.90;;;;;;5053437;28;20056;-67
2021/08/08 10:44:47;;;;;;;12.27;4.77;;;19.50;85.70;;;;;;5054169;28;20056;-67
2021/08/08 10:47:27;;;;;;;13.53;4.60;;;19.60;84.20;;;;;;5054040;28;20140;-68
2021/08/08 10:49:53;;;;;;;12.73;3.40;;;19.60;82.30;;;;;;5053325;28;20490;-68
2021/08/08 10:52:19;;;;;;;17.07;4.20;;;19.60;83.00;;;;;;5053852;28;20044;-67
2021/08/08 10:54:54;;;;;;;12.27;3.90;;;19.60;82.40;;;;;;5053754;28;20098;-68
2021/08/08 10:57:20;;;;;;;11.93;4.70;;;19.70;81.40;;;;;;5053230;28;20049;-67
2021/08/08 10:59:51;;;;;;;16.60;4.57;;;19.70;81.50;;;;;;5053104;28;20482;-67
2021/08/08 11:02:25;;;;;;;13.65;4.25;;;19.90;80.70;;;;;;5052899;28;20468;-68
2021/08/08 11:04:51;;;;;;;16.10;4.37;;;20.00;80.30;;;;;;5053801;28;20694;-67
2021/08/08 11:07:24;;;;;;;12.07;3.70;;;20.10;80.20;;;;;;5053558;28;20485;-67
2021/08/08 11:09:50;;;;;;;14.60;4.40;;;20.20;80.20;;;;;;5052798;28;20080;-69
2021/08/08 11:12:18;;;;;;;12.53;4.00;;;20.30;80.00;;;;;;5053318;28;20076;-68
2021/08/08 11:14:50;;;;;;;15.53;3.70;;;20.30;78.70;;;;;;5053461;28;20328;-66
2021/08/08 11:17:16;;;;;;;11.23;3.67;;;20.20;78.70;;;;;;5052435;28;20049;-68
2021/08/08 11:19:43;;;;;;;12.67;3.80;;;20.00;79.20;;;;;;5053585;28;20119;-67
2021/08/08 11:22:14;;;;;;;12.50;3.87;;;19.80;79.50;;;;;;5053382;28;20045;-66
2021/08/08 11:24:41;;;;;;;;;;;19.70;80.20;;;;;;5053379;28;20048;-68
2021/08/08 11:27:08;;;;;;;19.73;4.50;;;19.60;80.40;;;;;;5053346;28;19960;-66
2021/08/08 11:29:34;;;;;;;12.10;3.37;;;19.60;81.40;;;;;;5053315;28;20053;-66
2021/08/08 11:32:03;;;;;;;9.73;3.30;;;19.50;81.50;;;;;;5053066;28;20497;-67
2021/08/08 11:34:28;;;;;;;11.50;3.53;;;19.40;81.00;;;;;;5053352;28;20180;-68
2021/08/08 11:36:57;;;;;;;10.40;3.60;;;19.20;81.30;;;;;;5053374;28;20076;-67
2021/08/08 11:39:32;;;;;;;9.30;3.13;;;19.20;81.10;;;;;;5051979;28;20045;-67
2021/08/08 11:42:06;;;;;;;11.17;3.10;;;19.30;80.20;;;;;;5053201;28;20053;-67
2021/08/08 11:44:40;;;;;;;7.97;3.00;;;19.40;80.10;;;;;;5052430;28;20068;-67
2021/08/08 11:47:06;;;;;;;9.37;2.93;;;19.50;80.70;;;;;;5052784;28;20077;-67
2021/08/08 11:49:45;;;;;;;7.43;2.90;;;19.70;80.30;;;;;;5052651;28;20053;-66
2021/08/08 11:52:19;;;;;;;9.33;3.10;;;19.80;80.00;;;;;;5052024;28;20049;-67
2021/08/08 11:54:46;;;;;;;12.97;4.27;;;20.10;80.20;;;;;;5052787;28;20048;-68
2021/08/08 11:57:27;;;;;;;13.67;4.33;;;20.20;79.60;;;;;;5052746;28;20053;-68
2021/08/08 11:59:53;;;;;;;16.35;4.30;;;20.10;77.30;;;;;;5052038;28;20123;-68
2021/08/08 12:02:19;;;;;;;13.37;5.53;;;19.90;79.20;;;;;;5052645;28;20326;-68
2021/08/08 12:04:45;;;;;;;13.77;5.13;;;19.60;80.70;;;;;;5052571;28;20235;-68
2021/08/08 12:07:11;;;;;;;13.53;4.33;;;19.40;82.40;;;;;;5051392;28;20049;-67
2021/08/08 12:09:44;;;;;;;11.70;4.53;;;19.20;83.60;;;;;;5052217;28;20053;-67
2021/08/08 12:12:10;;;;;;;12.97;5.00;;;19.00;84.40;;;;;;5052285;28;20120;-67
2021/08/08 12:14:41;;;;;;;14.77;4.60;;;18.80;85.10;;;;;;5051499;28;20657;-67
2021/08/08 12:17:16;;;;;;;13.57;4.95;;;18.70;85.50;;;;;;5052428;28;20060;-66
2021/08/08 12:19:47;;;;;;;15.00;3.80;;;18.70;85.80;;;;;;5051434;28;20057;-66
2021/08/08 12:22:15;;;;;;;16.30;4.53;;;18.70;85.80;;;;;;5052346;28;20060;-68
2021/08/08 12:24:43;;;;;;;14.90;4.60;;;18.70;85.30;;;;;;5046357;28;20041;-68
2021/08/08 12:27:10;;;;;;;12.20;4.27;;;18.80;85.40;;;;;;5039981;28;20076;-66
2021/08/08 12:29:38;;;;;;;11.50;4.47;;;19.00;84.90;;;;;;5041382;28;20041;-67
2021/08/08 12:32:15;;;;;;;14.73;4.37;;;19.10;84.60;;;;;;5042337;28;20060;-68
2021/08/08 12:34:43;;;;;;;16.87;4.40;;;19.20;83.00;;;;;;5041684;28;20053;-67
2021/08/08 12:37:13;;;;;;;12.03;4.20;;;19.10;82.70;;;;;;5040541;28;20037;-66
2021/08/08 12:39:41;;;;;;;12.23;4.07;;;19.10;83.00;;;;;;5040831;28;20052;-66